sensor_id;sensor_type;location;lat;lon;timestamp;pressure;altitude;pressure_sealevel;temperature;humidity
13058;BME280;6595;49.578;11.012;2023-07-13T00:00:24;987.693;;;22.17;52.7
13058;BME280;6595;49.578;11.012;2023-07-13T00:02:24;987.677;;;22.20;52.7
13058;BME280;6595;49.578;11.012;2023-07-13T00:04:25;987.764;;;22.15;52.5
13058;BME280;6595;49.578;11.012;2023-07-13T00:06:24;987.717;;;22.14;52.6
13058;BME280;6595;49.578;11.012;2023-07-13T00:08:23;987.750;;;22.15;52.6
13058;BME280;6595;49.578;11.012;2023-07-13T00:10:24;987.654;;;22.10;52.9
13058;BME280;6595;49.578;11.012;2023-07-13T00:12:26;987.682;;;22.11;52.8
13058;BME280;6595;49.578;11.012;2023-07-13T00:14:26;987.544;;;22.07;52.8
13058;BME280;6595;49.578;11.012;2023-07-13T00:16:23;987.521;;;22.04;53.2
13058;BME280;6595;49.578;11.012;2023-07-13T00:18:23;987.535;;;22.01;52.9
13058;BME280;6595;49.578;11.012;2023-07-13T00:20:24;987.417;;;22.00;52.9
13058;BME280;6595;49.578;11.012;2023-07-13T00:22:24;987.332;;;21.97;53.2
13058;BME280;6595;49.578;11.012;2023-07-13T00:24:23;987.380;;;21.96;52.9
13058;BME280;6595;49.578;11.012;2023-07-13T00:26:24;987.364;;;21.90;52.9
13058;BME280;6595;49.578;11.012;2023-07-13T00:28:24;987.312;;;21.86;52.8
13058;BME280;6595;49.578;11.012;2023-07-13T00:30:24;987.322;;;21.83;52.8
13058;BME280;6595;49.578;11.012;2023-07-13T00:32:24;987.326;;;21.78;52.8
13058;BME280;6595;49.578;11.012;2023-07-13T00:34:23;987.375;;;21.76;53.0
13058;BME280;6595;49.578;11.012;2023-07-13T00:36:24;987.362;;;21.77;53.0
13058;BME280;6595;49.578;11.012;2023-07-13T00:38:24;987.352;;;21.68;53.0
13058;BME280;6595;49.578;11.012;2023-07-13T00:40:23;987.386;;;21.66;53.0
13058;BME280;6595;49.578;11.012;2023-07-13T00:42:24;987.312;;;21.63;53.1
13058;BME280;6595;49.578;11.012;2023-07-13T00:44:23;987.336;;;21.58;53.3
13058;BME280;6595;49.578;11.012;2023-07-13T00:46:26;987.338;;;21.54;53.3
13058;BME280;6595;49.578;11.012;2023-07-13T00:48:27;987.475;;;21.52;53.2
13058;BME280;6595;49.578;11.012;2023-07-13T00:50:23;987.398;;;21.47;53.4
13058;BME280;6595;49.578;11.012;2023-07-13T00:52:24;987.445;;;21.49;53.3
13058;BME280;6595;49.578;11.012;2023-07-13T00:54:26;987.362;;;21.40;53.3
13058;BME280;6595;49.578;11.012;2023-07-13T00:56:23;987.452;;;21.37;53.4
13058;BME280;6595;49.578;11.012;2023-07-13T00:58:25;987.470;;;21.39;53.5
13058;BME280;6595;49.578;11.012;2023-07-13T01:00:25;987.658;;;21.39;53.5
13058;BME280;6595;49.578;11.012;2023-07-13T01:02:25;987.655;;;21.32;53.3
13058;BME280;6595;49.578;11.012;2023-07-13T01:04:24;987.561;;;21.30;53.5
13058;BME280;6595;49.578;11.012;2023-07-13T01:06:23;987.584;;;21.29;53.4
13058;BME280;6595;49.578;11.012;2023-07-13T01:08:23;987.572;;;21.26;53.2
13058;BME280;6595;49.578;11.012;2023-07-13T01:10:25;987.636;;;21.25;53.1
13058;BME280;6595;49.578;11.012;2023-07-13T01:12:23;987.610;;;21.19;53.5
13058;BME280;6595;49.578;11.012;2023-07-13T01:14:24;987.618;;;21.21;53.5
13058;BME280;6595;49.578;11.012;2023-07-13T01:16:25;987.614;;;21.15;53.2
13058;BME280;6595;49.578;11.012;2023-07-13T01:18:25;987.547;;;21.06;53.2
13058;BME280;6595;49.578;11.012;2023-07-13T01:20:24;987.576;;;21.03;53.5
13058;BME280;6595;49.578;11.012;2023-07-13T01:22:24;987.505;;;20.98;53.6
13058;BME280;6595;49.578;11.012;2023-07-13T01:24:23;987.484;;;20.98;54.3
13058;BME280;6595;49.578;11.012;2023-07-13T01:26:24;987.415;;;20.92;54.0
13058;BME280;6595;49.578;11.012;2023-07-13T01:28:25;987.563;;;20.88;53.7
13058;BME280;6595;49.578;11.012;2023-07-13T01:30:23;987.594;;;20.86;54.1
13058;BME280;6595;49.578;11.012;2023-07-13T01:32:24;987.594;;;20.86;54.1
13058;BME280;6595;49.578;11.012;2023-07-13T01:34:23;987.644;;;20.81;54.4
13058;BME280;6595;49.578;11.012;2023-07-13T01:36:24;987.570;;;20.68;54.2
13058;BME280;6595;49.578;11.012;2023-07-13T01:38:24;987.637;;;20.68;54.4
13058;BME280;6595;49.578;11.012;2023-07-13T01:40:23;987.628;;;20.58;54.5
13058;BME280;6595;49.578;11.012;2023-07-13T01:42:24;987.625;;;20.55;54.8
13058;BME280;6595;49.578;11.012;2023-07-13T01:44:24;987.631;;;20.49;54.9
13058;BME280;6595;49.578;11.012;2023-07-13T01:46:24;987.570;;;20.48;55.1
13058;BME280;6595;49.578;11.012;2023-07-13T01:48:23;987.548;;;20.42;54.9
13058;BME280;6595;49.578;11.012;2023-07-13T01:50:23;987.591;;;20.39;55.0
13058;BME280;6595;49.578;11.012;2023-07-13T01:52:24;987.562;;;20.32;55.1
13058;BME280;6595;49.578;11.012;2023-07-13T01:54:23;987.550;;;20.31;55.2
13058;BME280;6595;49.578;11.012;2023-07-13T01:56:24;987.513;;;20.28;55.3
13058;BME280;6595;49.578;11.012;2023-07-13T01:58:23;987.545;;;20.27;55.4
13058;BME280;6595;49.578;11.012;2023-07-13T02:00:23;987.538;;;20.18;55.7
13058;BME280;6595;49.578;11.012;2023-07-13T02:02:23;987.484;;;20.14;55.9
13058;BME280;6595;49.578;11.012;2023-07-13T02:04:23;987.475;;;20.13;55.9
13058;BME280;6595;49.578;11.012;2023-07-13T02:06:23;987.410;;;20.08;56.1
13058;BME280;6595;49.578;11.012;2023-07-13T02:08:24;987.482;;;20.06;56.4
13058;BME280;6595;49.578;11.012;2023-07-13T02:10:23;987.489;;;20.06;56.6
13058;BME280;6595;49.578;11.012;2023-07-13T02:12:23;987.453;;;20.01;56.5
13058;BME280;6595;49.578;11.012;2023-07-13T02:14:24;987.529;;;20.00;56.7
13058;BME280;6595;49.578;11.012;2023-07-13T02:16:23;987.516;;;19.97;56.6
13058;BME280;6595;49.578;11.012;2023-07-13T02:18:24;987.559;;;19.87;56.8
13058;BME280;6595;49.578;11.012;2023-07-13T02:20:23;987.515;;;19.83;57.0
13058;BME280;6595;49.578;11.012;2023-07-13T02:22:23;987.560;;;19.77;57.3
13058;BME280;6595;49.578;11.012;2023-07-13T02:24:24;987.659;;;19.70;57.3
13058;BME280;6595;49.578;11.012;2023-07-13T02:26:23;987.615;;;19.70;57.6
13058;BME280;6595;49.578;11.012;2023-07-13T02:28:23;987.603;;;19.69;57.7
13058;BME280;6595;49.578;11.012;2023-07-13T02:30:24;987.579;;;19.67;57.6
13058;BME280;6595;49.578;11.012;2023-07-13T02:32:23;987.572;;;19.64;57.8
13058;BME280;6595;49.578;11.012;2023-07-13T02:34:23;987.489;;;19.57;57.9
13058;BME280;6595;49.578;11.012;2023-07-13T02:36:24;987.524;;;19.54;57.7
13058;BME280;6595;49.578;11.012;2023-07-13T02:38:23;987.576;;;19.50;57.8
13058;BME280;6595;49.578;11.012;2023-07-13T02:40:24;987.597;;;19.50;57.8
13058;BME280;6595;49.578;11.012;2023-07-13T02:42:23;987.573;;;19.46;58.0
13058;BME280;6595;49.578;11.012;2023-07-13T02:44:23;987.643;;;19.42;58.1
13058;BME280;6595;49.578;11.012;2023-07-13T02:46:24;987.587;;;19.39;58.1
13058;BME280;6595;49.578;11.012;2023-07-13T02:48:23;987.638;;;19.36;58.2
13058;BME280;6595;49.578;11.012;2023-07-13T02:50:23;987.628;;;19.27;58.4
13058;BME280;6595;49.578;11.012;2023-07-13T02:52:24;987.682;;;19.27;58.5
13058;BME280;6595;49.578;11.012;2023-07-13T02:54:23;987.707;;;19.25;58.3
13058;BME280;6595;49.578;11.012;2023-07-13T02:56:26;987.707;;;19.25;58.3
13058;BME280;6595;49.578;11.012;2023-07-13T02:58:23;987.757;;;19.12;58.8
13058;BME280;6595;49.578;11.012;2023-07-13T03:00:24;987.689;;;19.10;58.8
13058;BME280;6595;49.578;11.012;2023-07-13T03:02:24;987.797;;;19.06;58.8
13058;BME280;6595;49.578;11.012;2023-07-13T03:04:24;987.826;;;19.08;59.0
13058;BME280;6595;49.578;11.012;2023-07-13T03:06:23;987.889;;;19.02;59.0
13058;BME280;6595;49.578;11.012;2023-07-13T03:08:25;987.802;;;18.94;59.2
13058;BME280;6595;49.578;11.012;2023-07-13T03:10:23;987.833;;;18.91;59.4
13058;BME280;6595;49.578;11.012;2023-07-13T03:12:23;987.851;;;18.92;59.4
13058;BME280;6595;49.578;11.012;2023-07-13T03:14:24;987.863;;;18.88;59.5
13058;BME280;6595;49.578;11.012;2023-07-13T03:16:23;987.815;;;18.85;59.5
13058;BME280;6595;49.578;11.012;2023-07-13T03:18:23;987.942;;;18.82;59.5
13058;BME280;6595;49.578;11.012;2023-07-13T03:20:24;987.853;;;18.76;59.7
13058;BME280;6595;49.578;11.012;2023-07-13T03:22:23;987.973;;;18.74;59.7
13058;BME280;6595;49.578;11.012;2023-07-13T03:24:23;987.913;;;18.72;60.2
13058;BME280;6595;49.578;11.012;2023-07-13T03:26:24;987.982;;;18.64;60.0
13058;BME280;6595;49.578;11.012;2023-07-13T03:28:23;988.076;;;18.66;60.0
13058;BME280;6595;49.578;11.012;2023-07-13T03:30:23;988.168;;;18.69;60.0
13058;BME280;6595;49.578;11.012;2023-07-13T03:32:24;988.168;;;18.69;60.0
13058;BME280;6595;49.578;11.012;2023-07-13T03:34:24;988.297;;;18.62;60.0
13058;BME280;6595;49.578;11.012;2023-07-13T03:36:25;988.358;;;18.55;60.0
13058;BME280;6595;49.578;11.012;2023-07-13T03:38:24;988.298;;;18.50;59.9
13058;BME280;6595;49.578;11.012;2023-07-13T03:40:23;988.382;;;18.43;60.3
13058;BME280;6595;49.578;11.012;2023-07-13T03:42:23;988.341;;;18.41;60.2
13058;BME280;6595;49.578;11.012;2023-07-13T03:44:24;988.375;;;18.41;60.4
13058;BME280;6595;49.578;11.012;2023-07-13T03:46:23;988.400;;;18.38;60.2
13058;BME280;6595;49.578;11.012;2023-07-13T03:48:24;988.428;;;18.41;60.4
13058;BME280;6595;49.578;11.012;2023-07-13T03:50:23;988.426;;;18.40;60.4
13058;BME280;6595;49.578;11.012;2023-07-13T03:52:24;988.470;;;18.37;60.4
13058;BME280;6595;49.578;11.012;2023-07-13T03:54:23;988.561;;;18.37;60.6
13058;BME280;6595;49.578;11.012;2023-07-13T03:56:23;988.458;;;18.37;60.5
13058;BME280;6595;49.578;11.012;2023-07-13T03:58:30;988.458;;;18.37;60.5
13058;BME280;6595;49.578;11.012;2023-07-13T04:00:23;988.474;;;18.35;60.4
13058;BME280;6595;49.578;11.012;2023-07-13T04:02:23;988.498;;;18.33;60.4
13058;BME280;6595;49.578;11.012;2023-07-13T04:04:24;988.422;;;18.30;60.7
13058;BME280;6595;49.578;11.012;2023-07-13T04:06:27;988.502;;;18.33;60.6
13058;BME280;6595;49.578;11.012;2023-07-13T04:08:23;988.572;;;18.28;60.5
13058;BME280;6595;49.578;11.012;2023-07-13T04:10:24;988.593;;;18.23;60.7
13058;BME280;6595;49.578;11.012;2023-07-13T04:12:23;988.586;;;18.24;61.0
13058;BME280;6595;49.578;11.012;2023-07-13T04:14:24;988.603;;;18.27;60.7
13058;BME280;6595;49.578;11.012;2023-07-13T04:16:24;988.679;;;18.25;60.5
13058;BME280;6595;49.578;11.012;2023-07-13T04:18:23;988.658;;;18.20;60.3
13058;BME280;6595;49.578;11.012;2023-07-13T04:20:24;988.673;;;18.20;60.3
13058;BME280;6595;49.578;11.012;2023-07-13T04:22:23;988.683;;;18.23;60.5
13058;BME280;6595;49.578;11.012;2023-07-13T04:24:23;988.706;;;18.18;60.2
13058;BME280;6595;49.578;11.012;2023-07-13T04:26:24;988.667;;;18.20;60.7
13058;BME280;6595;49.578;11.012;2023-07-13T04:28:25;988.649;;;18.13;60.6
13058;BME280;6595;49.578;11.012;2023-07-13T04:30:24;988.644;;;18.15;60.5
13058;BME280;6595;49.578;11.012;2023-07-13T04:32:23;988.659;;;18.13;60.5
13058;BME280;6595;49.578;11.012;2023-07-13T04:34:23;988.681;;;18.07;60.6
13058;BME280;6595;49.578;11.012;2023-07-13T04:36:24;988.615;;;18.10;60.9
13058;BME280;6595;49.578;11.012;2023-07-13T04:38:26;988.683;;;18.08;60.7
13058;BME280;6595;49.578;11.012;2023-07-13T04:40:23;988.746;;;18.05;61.0
13058;BME280;6595;49.578;11.012;2023-07-13T04:42:24;988.772;;;18.08;60.7
13058;BME280;6595;49.578;11.012;2023-07-13T04:44:23;988.731;;;18.07;60.7
13058;BME280;6595;49.578;11.012;2023-07-13T04:46:24;988.840;;;18.10;60.4
13058;BME280;6595;49.578;11.012;2023-07-13T04:48:24;988.796;;;18.10;60.2
13058;BME280;6595;49.578;11.012;2023-07-13T04:50:23;988.879;;;18.14;60.0
13058;BME280;6595;49.578;11.012;2023-07-13T04:52:24;988.767;;;18.14;60.1
13058;BME280;6595;49.578;11.012;2023-07-13T04:54:23;988.897;;;18.21;59.8
13058;BME280;6595;49.578;11.012;2023-07-13T04:56:24;988.855;;;18.30;59.6
13058;BME280;6595;49.578;11.012;2023-07-13T04:58:24;988.898;;;18.56;58.4
13058;BME280;6595;49.578;11.012;2023-07-13T05:00:23;988.877;;;18.58;58.6
13058;BME280;6595;49.578;11.012;2023-07-13T05:02:24;988.904;;;18.64;58.1
13058;BME280;6595;49.578;11.012;2023-07-13T05:04:24;989.025;;;18.82;58.3
13058;BME280;6595;49.578;11.012;2023-07-13T05:06:23;988.994;;;18.76;57.8
13058;BME280;6595;49.578;11.012;2023-07-13T05:08:24;989.041;;;18.88;58.0
13058;BME280;6595;49.578;11.012;2023-07-13T05:10:23;989.071;;;19.37;56.0
13058;BME280;6595;49.578;11.012;2023-07-13T05:12:23;989.013;;;19.40;55.8
13058;BME280;6595;49.578;11.012;2023-07-13T05:14:24;989.085;;;19.27;55.7
13058;BME280;6595;49.578;11.012;2023-07-13T05:16:23;989.112;;;19.45;55.8
13058;BME280;6595;49.578;11.012;2023-07-13T05:18:24;989.219;;;19.18;56.0
13058;BME280;6595;49.578;11.012;2023-07-13T05:20:23;989.176;;;19.52;55.6
13058;BME280;6595;49.578;11.012;2023-07-13T05:22:23;989.120;;;19.45;55.4
13058;BME280;6595;49.578;11.012;2023-07-13T05:24:24;989.209;;;19.45;55.2
13058;BME280;6595;49.578;11.012;2023-07-13T05:26:23;989.141;;;19.72;54.5
13058;BME280;6595;49.578;11.012;2023-07-13T05:28:23;989.031;;;19.78;54.1
13058;BME280;6595;49.578;11.012;2023-07-13T05:30:24;989.163;;;19.93;54.2
13058;BME280;6595;49.578;11.012;2023-07-13T05:32:23;989.155;;;19.91;53.8
13058;BME280;6595;49.578;11.012;2023-07-13T05:34:23;989.146;;;19.91;54.0
13058;BME280;6595;49.578;11.012;2023-07-13T05:36:24;989.187;;;20.11;52.8
13058;BME280;6595;49.578;11.012;2023-07-13T05:38:24;989.188;;;20.08;52.6
13058;BME280;6595;49.578;11.012;2023-07-13T05:40:23;989.187;;;20.11;52.7
13058;BME280;6595;49.578;11.012;2023-07-13T05:42:24;989.178;;;20.32;51.9
13058;BME280;6595;49.578;11.012;2023-07-13T05:44:23;989.194;;;20.25;51.2
13058;BME280;6595;49.578;11.012;2023-07-13T05:46:24;989.250;;;20.38;51.6
13058;BME280;6595;49.578;11.012;2023-07-13T05:48:24;989.293;;;20.47;51.1
13058;BME280;6595;49.578;11.012;2023-07-13T05:50:23;989.358;;;20.08;51.5
13058;BME280;6595;49.578;11.012;2023-07-13T05:52:24;989.351;;;20.10;51.4
13058;BME280;6595;49.578;11.012;2023-07-13T05:54:24;989.322;;;20.24;51.6
13058;BME280;6595;49.578;11.012;2023-07-13T05:56:23;989.331;;;20.37;51.4
13058;BME280;6595;49.578;11.012;2023-07-13T05:58:24;989.353;;;20.34;51.3
13058;BME280;6595;49.578;11.012;2023-07-13T06:00:23;989.479;;;20.31;51.0
13058;BME280;6595;49.578;11.012;2023-07-13T06:02:23;989.395;;;20.32;51.4
13058;BME280;6595;49.578;11.012;2023-07-13T06:04:24;989.446;;;20.14;51.6
13058;BME280;6595;49.578;11.012;2023-07-13T06:06:24;989.472;;;20.17;51.5
13058;BME280;6595;49.578;11.012;2023-07-13T06:08:23;989.492;;;20.17;51.4
13058;BME280;6595;49.578;11.012;2023-07-13T06:10:24;989.438;;;20.06;51.9
13058;BME280;6595;49.578;11.012;2023-07-13T06:12:23;989.471;;;20.21;51.8
13058;BME280;6595;49.578;11.012;2023-07-13T06:14:24;989.501;;;20.35;52.1
13058;BME280;6595;49.578;11.012;2023-07-13T06:16:23;989.515;;;20.44;51.9
13058;BME280;6595;49.578;11.012;2023-07-13T06:18:23;989.509;;;20.45;51.4
13058;BME280;6595;49.578;11.012;2023-07-13T06:20:24;989.524;;;20.65;51.2
13058;BME280;6595;49.578;11.012;2023-07-13T06:22:23;989.540;;;20.79;50.6
13058;BME280;6595;49.578;11.012;2023-07-13T06:24:24;989.559;;;20.68;50.5
13058;BME280;6595;49.578;11.012;2023-07-13T06:26:23;989.390;;;20.44;51.2
13058;BME280;6595;49.578;11.012;2023-07-13T06:28:23;989.524;;;20.81;50.7
13058;BME280;6595;49.578;11.012;2023-07-13T06:30:24;989.524;;;20.81;50.7
13058;BME280;6595;49.578;11.012;2023-07-13T06:32:23;989.546;;;20.99;49.4
13058;BME280;6595;49.578;11.012;2023-07-13T06:34:23;989.578;;;20.98;49.8
13058;BME280;6595;49.578;11.012;2023-07-13T06:36:24;989.563;;;20.96;49.5
13058;BME280;6595;49.578;11.012;2023-07-13T06:38:23;989.627;;;21.15;48.8
13058;BME280;6595;49.578;11.012;2023-07-13T06:40:23;989.597;;;21.07;49.3
13058;BME280;6595;49.578;11.012;2023-07-13T06:42:24;989.647;;;21.05;49.1
13058;BME280;6595;49.578;11.012;2023-07-13T06:44:25;989.665;;;21.06;49.1
13058;BME280;6595;49.578;11.012;2023-07-13T06:46:23;989.663;;;21.01;49.2
13058;BME280;6595;49.578;11.012;2023-07-13T06:48:24;989.697;;;21.09;48.6
13058;BME280;6595;49.578;11.012;2023-07-13T06:50:23;989.688;;;21.13;48.7
13058;BME280;6595;49.578;11.012;2023-07-13T06:52:23;989.701;;;21.19;48.2
13058;BME280;6595;49.578;11.012;2023-07-13T06:54:24;989.826;;;21.01;48.6
13058;BME280;6595;49.578;11.012;2023-07-13T06:56:23;989.862;;;21.05;48.8
13058;BME280;6595;49.578;11.012;2023-07-13T06:58:24;989.858;;;21.07;48.8
13058;BME280;6595;49.578;11.012;2023-07-13T07:00:23;989.951;;;21.26;48.7
13058;BME280;6595;49.578;11.012;2023-07-13T07:02:23;989.931;;;21.10;48.5
13058;BME280;6595;49.578;11.012;2023-07-13T07:04:23;989.961;;;21.23;48.4
13058;BME280;6595;49.578;11.012;2023-07-13T07:06:24;989.944;;;21.27;48.5
13058;BME280;6595;49.578;11.012;2023-07-13T07:08:23;989.947;;;21.56;47.7
13058;BME280;6595;49.578;11.012;2023-07-13T07:10:24;989.960;;;21.54;48.0
13058;BME280;6595;49.578;11.012;2023-07-13T07:12:24;989.971;;;21.66;47.9
13058;BME280;6595;49.578;11.012;2023-07-13T07:14:23;989.956;;;21.64;47.5
13058;BME280;6595;49.578;11.012;2023-07-13T07:16:24;990.005;;;21.67;47.6
13058;BME280;6595;49.578;11.012;2023-07-13T07:18:24;990.060;;;21.63;47.5
13058;BME280;6595;49.578;11.012;2023-07-13T07:20:23;990.030;;;21.61;47.5
13058;BME280;6595;49.578;11.012;2023-07-13T07:22:24;990.031;;;21.77;47.6
13058;BME280;6595;49.578;11.012;2023-07-13T07:24:24;990.058;;;21.81;47.1
13058;BME280;6595;49.578;11.012;2023-07-13T07:26:23;990.124;;;21.81;46.6
13058;BME280;6595;49.578;11.012;2023-07-13T07:28:24;990.067;;;21.78;46.3
13058;BME280;6595;49.578;11.012;2023-07-13T07:30:23;990.124;;;21.87;46.5
13058;BME280;6595;49.578;11.012;2023-07-13T07:32:24;990.174;;;21.88;46.3
13058;BME280;6595;49.578;11.012;2023-07-13T07:34:24;990.104;;;21.91;46.4
13058;BME280;6595;49.578;11.012;2023-07-13T07:36:23;990.153;;;21.86;46.6
13058;BME280;6595;49.578;11.012;2023-07-13T07:38:24;990.163;;;21.88;46.9
13058;BME280;6595;49.578;11.012;2023-07-13T07:40:23;990.226;;;21.81;46.0
13058;BME280;6595;49.578;11.012;2023-07-13T07:42:24;990.199;;;21.70;46.1
13058;BME280;6595;49.578;11.012;2023-07-13T07:44:23;990.181;;;21.78;45.8
13058;BME280;6595;49.578;11.012;2023-07-13T07:46:23;990.237;;;21.94;45.4
13058;BME280;6595;49.578;11.012;2023-07-13T07:48:24;990.279;;;21.97;44.9
13058;BME280;6595;49.578;11.012;2023-07-13T07:50:24;990.295;;;21.96;44.6
13058;BME280;6595;49.578;11.012;2023-07-13T07:52:23;990.317;;;22.10;44.3
13058;BME280;6595;49.578;11.012;2023-07-13T07:54:24;990.346;;;22.18;44.4
13058;BME280;6595;49.578;11.012;2023-07-13T07:56:23;990.428;;;22.28;43.3
13058;BME280;6595;49.578;11.012;2023-07-13T07:58:23;990.410;;;22.37;43.2
13058;BME280;6595;49.578;11.012;2023-07-13T08:00:24;990.357;;;22.31;43.5
13058;BME280;6595;49.578;11.012;2023-07-13T08:02:24;990.457;;;22.28;43.6
13058;BME280;6595;49.578;11.012;2023-07-13T08:04:24;990.458;;;22.45;42.3
13058;BME280;6595;49.578;11.012;2023-07-13T08:06:24;990.427;;;22.25;42.5
13058;BME280;6595;49.578;11.012;2023-07-13T08:08:23;990.469;;;22.31;42.5
13058;BME280;6595;49.578;11.012;2023-07-13T08:10:24;990.527;;;22.32;42.9
13058;BME280;6595;49.578;11.012;2023-07-13T08:12:23;990.496;;;22.15;42.9
13058;BME280;6595;49.578;11.012;2023-07-13T08:14:24;990.528;;;22.11;43.2
13058;BME280;6595;49.578;11.012;2023-07-13T08:16:24;990.541;;;21.96;43.3
13058;BME280;6595;49.578;11.012;2023-07-13T08:18:24;990.440;;;22.00;43.4
13058;BME280;6595;49.578;11.012;2023-07-13T08:20:23;990.472;;;22.04;42.5
13058;BME280;6595;49.578;11.012;2023-07-13T08:22:24;990.598;;;22.01;42.5
13058;BME280;6595;49.578;11.012;2023-07-13T08:24:24;990.507;;;22.07;41.9
13058;BME280;6595;49.578;11.012;2023-07-13T08:26:23;990.508;;;22.07;41.5
13058;BME280;6595;49.578;11.012;2023-07-13T08:28:24;990.516;;;22.14;40.8
13058;BME280;6595;49.578;11.012;2023-07-13T08:30:23;990.533;;;22.15;40.7
13058;BME280;6595;49.578;11.012;2023-07-13T08:32:23;990.602;;;22.04;40.5
13058;BME280;6595;49.578;11.012;2023-07-13T08:34:24;990.570;;;22.18;40.7
13058;BME280;6595;49.578;11.012;2023-07-13T08:36:25;990.588;;;22.28;40.5
13058;BME280;6595;49.578;11.012;2023-07-13T08:38:23;990.617;;;22.45;39.8
13058;BME280;6595;49.578;11.012;2023-07-13T08:40:27;990.676;;;22.54;38.7
13058;BME280;6595;49.578;11.012;2023-07-13T08:42:32;990.635;;;22.61;37.3
13058;BME280;6595;49.578;11.012;2023-07-13T08:44:27;990.636;;;22.62;37.1
13058;BME280;6595;49.578;11.012;2023-07-13T08:46:26;990.685;;;22.66;36.9
13058;BME280;6595;49.578;11.012;2023-07-13T08:48:26;990.582;;;22.37;36.2
13058;BME280;6595;49.578;11.012;2023-07-13T08:50:27;990.530;;;22.41;36.4
13058;BME280;6595;49.578;11.012;2023-07-13T08:52:30;990.632;;;22.56;36.4
13058;BME280;6595;49.578;11.012;2023-07-13T08:54:27;990.619;;;22.74;36.9
13058;BME280;6595;49.578;11.012;2023-07-13T08:56:27;990.615;;;22.82;35.8
13058;BME280;6595;49.578;11.012;2023-07-13T08:58:25;990.562;;;22.75;35.8
13058;BME280;6595;49.578;11.012;2023-07-13T09:00:31;990.678;;;22.80;36.1
13058;BME280;6595;49.578;11.012;2023-07-13T09:02:27;990.743;;;22.95;36.5
13058;BME280;6595;49.578;11.012;2023-07-13T09:04:28;990.760;;;22.92;36.1
13058;BME280;6595;49.578;11.012;2023-07-13T09:06:31;990.753;;;22.96;37.1
13058;BME280;6595;49.578;11.012;2023-07-13T09:08:38;990.753;;;22.96;37.1
13058;BME280;6595;49.578;11.012;2023-07-13T09:10:28;990.750;;;22.96;36.2
13058;BME280;6595;49.578;11.012;2023-07-13T09:12:29;990.756;;;23.06;36.2
13058;BME280;6595;49.578;11.012;2023-07-13T09:14:33;990.719;;;23.05;36.4
13058;BME280;6595;49.578;11.012;2023-07-13T09:16:24;990.880;;;23.15;36.2
13058;BME280;6595;49.578;11.012;2023-07-13T09:18:28;990.723;;;23.19;35.7
13058;BME280;6595;49.578;11.012;2023-07-13T09:20:27;990.686;;;23.25;34.7
13058;BME280;6595;49.578;11.012;2023-07-13T09:22:25;990.729;;;23.29;34.3
13058;BME280;6595;49.578;11.012;2023-07-13T09:24:35;990.781;;;23.47;34.8
13058;BME280;6595;49.578;11.012;2023-07-13T09:26:25;990.807;;;23.45;33.5
13058;BME280;6595;49.578;11.012;2023-07-13T09:28:26;990.786;;;23.43;33.2
13058;BME280;6595;49.578;11.012;2023-07-13T09:30:30;990.987;;;23.47;33.6
13058;BME280;6595;49.578;11.012;2023-07-13T09:32:25;990.839;;;23.42;33.3
13058;BME280;6595;49.578;11.012;2023-07-13T09:34:24;990.839;;;23.42;33.3
13058;BME280;6595;49.578;11.012;2023-07-13T09:36:26;990.902;;;23.64;32.7
13058;BME280;6595;49.578;11.012;2023-07-13T09:38:27;990.961;;;23.64;32.4
13058;BME280;6595;49.578;11.012;2023-07-13T09:40:30;990.908;;;23.77;32.1
13058;BME280;6595;49.578;11.012;2023-07-13T09:42:25;990.835;;;23.59;32.3
13058;BME280;6595;49.578;11.012;2023-07-13T09:44:29;990.945;;;23.60;33.1
13058;BME280;6595;49.578;11.012;2023-07-13T09:46:23;990.900;;;23.46;33.3
13058;BME280;6595;49.578;11.012;2023-07-13T09:48:24;990.807;;;23.30;34.0
13058;BME280;6595;49.578;11.012;2023-07-13T09:50:23;990.849;;;23.43;34.1
13058;BME280;6595;49.578;11.012;2023-07-13T09:52:24;990.884;;;23.54;33.6
13058;BME280;6595;49.578;11.012;2023-07-13T09:54:25;990.884;;;23.54;33.6
13058;BME280;6595;49.578;11.012;2023-07-13T09:56:27;990.838;;;23.52;33.4
13058;BME280;6595;49.578;11.012;2023-07-13T09:58:30;990.743;;;23.59;33.8
13058;BME280;6595;49.578;11.012;2023-07-13T10:00:26;990.818;;;23.52;33.6
13058;BME280;6595;49.578;11.012;2023-07-13T10:02:25;990.862;;;23.63;33.3
13058;BME280;6595;49.578;11.012;2023-07-13T10:04:28;990.893;;;23.46;33.5
13058;BME280;6595;49.578;11.012;2023-07-13T10:06:24;990.846;;;23.45;33.1
13058;BME280;6595;49.578;11.012;2023-07-13T10:08:26;990.816;;;23.52;33.2
13058;BME280;6595;49.578;11.012;2023-07-13T10:10:23;990.775;;;23.53;33.3
13058;BME280;6595;49.578;11.012;2023-07-13T10:12:24;990.841;;;23.67;33.7
13058;BME280;6595;49.578;11.012;2023-07-13T10:14:24;990.894;;;23.97;33.2
13058;BME280;6595;49.578;11.012;2023-07-13T10:16:24;990.921;;;23.94;33.0
13058;BME280;6595;49.578;11.012;2023-07-13T10:18:24;990.940;;;24.15;32.4
13058;BME280;6595;49.578;11.012;2023-07-13T10:20:24;990.804;;;24.14;31.6
13058;BME280;6595;49.578;11.012;2023-07-13T10:22:27;990.807;;;24.24;32.4
13058;BME280;6595;49.578;11.012;2023-07-13T10:24:26;990.818;;;24.30;32.1
13058;BME280;6595;49.578;11.012;2023-07-13T10:26:26;990.889;;;24.35;32.4
13058;BME280;6595;49.578;11.012;2023-07-13T10:28:29;990.946;;;24.31;31.4
13058;BME280;6595;49.578;11.012;2023-07-13T10:30:25;990.946;;;24.31;31.4
13058;BME280;6595;49.578;11.012;2023-07-13T10:32:24;990.876;;;24.57;32.0
13058;BME280;6595;49.578;11.012;2023-07-13T10:34:24;990.938;;;24.50;31.9
13058;BME280;6595;49.578;11.012;2023-07-13T10:36:31;990.996;;;24.44;31.6
13058;BME280;6595;49.578;11.012;2023-07-13T10:38:24;990.912;;;24.30;32.7
13058;BME280;6595;49.578;11.012;2023-07-13T10:40:28;990.900;;;24.32;31.8
13058;BME280;6595;49.578;11.012;2023-07-13T10:42:28;990.928;;;24.52;31.5
13058;BME280;6595;49.578;11.012;2023-07-13T10:44:26;990.885;;;24.64;31.1
13058;BME280;6595;49.578;11.012;2023-07-13T10:46:25;991.049;;;24.95;31.5
13058;BME280;6595;49.578;11.012;2023-07-13T10:48:24;990.992;;;25.09;31.8
13058;BME280;6595;49.578;11.012;2023-07-13T10:50:25;991.011;;;25.02;31.4
13058;BME280;6595;49.578;11.012;2023-07-13T10:52:40;990.993;;;24.83;31.2